createdAt,value
2018-06-07T00:00:41.961Z,2.30
2018-06-07T00:03:10.464Z,2.17
2018-06-07T00:05:38.926Z,2.30
2018-06-07T00:08:07.384Z,2.00
2018-06-07T00:10:35.889Z,2.17
2018-06-07T00:13:04.458Z,1.93
2018-06-07T00:15:33.102Z,2.00
2018-06-07T00:18:01.542Z,2.23
2018-06-07T00:20:30.062Z,2.20
2018-06-07T00:22:58.555Z,2.20
2018-06-07T00:25:27.060Z,1.97
2018-06-07T00:27:55.686Z,2.00
2018-06-07T00:30:24.305Z,1.73
2018-06-07T00:32:52.811Z,1.80
2018-06-07T00:35:21.387Z,2.47
2018-06-07T00:37:49.894Z,1.97
2018-06-07T00:40:18.354Z,2.00
2018-06-07T00:42:46.902Z,1.87
2018-06-07T00:45:16.859Z,1.87
2018-06-07T00:47:45.354Z,1.90
2018-06-07T00:50:13.977Z,1.60
2018-06-07T00:52:42.464Z,1.77
2018-06-07T00:55:10.977Z,2.00
2018-06-07T00:57:39.454Z,1.50
2018-06-07T01:00:07.962Z,1.60
2018-06-07T01:02:36.400Z,2.23
2018-06-07T01:05:05.204Z,1.73
2018-06-07T01:07:33.707Z,1.80
2018-06-07T01:10:02.253Z,1.70
2018-06-07T01:12:30.758Z,2.20
2018-06-07T01:14:59.303Z,1.50
2018-06-07T01:17:27.872Z,1.90
2018-06-07T01:19:56.513Z,1.50
2018-06-07T01:22:25.042Z,1.70
2018-06-07T01:24:53.499Z,1.90
2018-06-07T01:27:26.013Z,1.83
2018-06-07T01:30:05.723Z,1.73
2018-06-07T01:32:50.746Z,1.90
2018-06-07T01:35:20.297Z,1.53
2018-06-07T01:37:59.910Z,1.40
2018-06-07T01:40:28.380Z,1.47
2018-06-07T01:42:56.810Z,1.60
2018-06-07T01:45:25.405Z,1.90
2018-06-07T01:47:53.868Z,1.53
2018-06-07T01:50:22.278Z,1.40
2018-06-07T01:52:50.734Z,1.20
2018-06-07T01:55:19.153Z,1.60
2018-06-07T01:57:47.596Z,1.30
2018-06-07T02:00:16.134Z,1.30
2018-06-07T02:02:44.651Z,1.53
2018-06-07T02:05:13.214Z,1.50
2018-06-07T02:07:41.775Z,1.50
2018-06-07T02:10:10.386Z,1.30
2018-06-07T02:12:38.886Z,1.80
2018-06-07T02:15:07.455Z,1.43
2018-06-07T02:17:36.002Z,1.40
2018-06-07T02:20:04.604Z,1.70
2018-06-07T02:22:33.086Z,1.47
2018-06-07T02:25:01.678Z,1.47
2018-06-07T02:27:30.365Z,1.37
2018-06-07T02:29:58.901Z,1.43
2018-06-07T02:32:27.369Z,1.83
2018-06-07T02:34:55.907Z,1.50
2018-06-07T02:37:24.379Z,1.50
2018-06-07T02:39:52.898Z,1.47
2018-06-07T02:42:21.430Z,1.60
2018-06-07T02:44:49.933Z,1.50
2018-06-07T02:47:18.463Z,1.77
2018-06-07T02:49:46.934Z,1.50
2018-06-07T02:52:15.440Z,1.57
2018-06-07T02:54:43.917Z,1.43
2018-06-07T02:57:12.522Z,1.47
2018-06-07T02:59:41.007Z,1.57
2018-06-07T03:02:09.587Z,1.50
2018-06-07T03:04:38.066Z,1.40
2018-06-07T03:07:06.531Z,1.50
2018-06-07T03:09:35.173Z,1.50
2018-06-07T03:12:03.734Z,1.30
2018-06-07T03:14:32.317Z,1.67
2018-06-07T03:17:00.778Z,1.40
2018-06-07T03:19:29.282Z,1.30
2018-06-07T03:21:57.736Z,1.47
2018-06-07T03:24:26.227Z,1.20
2018-06-07T03:26:55.111Z,1.50
2018-06-07T03:29:23.678Z,1.70
2018-06-07T03:31:52.329Z,1.37
2018-06-07T03:34:20.839Z,1.33
2018-06-07T03:36:49.333Z,1.37
2018-06-07T03:39:17.825Z,1.73
2018-06-07T03:41:46.349Z,1.53
2018-06-07T03:44:14.916Z,1.40
2018-06-07T03:46:43.803Z,1.60
2018-06-07T03:49:12.255Z,1.80
2018-06-07T03:51:40.715Z,1.40
2018-06-07T03:54:09.232Z,1.80
2018-06-07T03:56:37.966Z,1.50
2018-06-07T03:59:06.784Z,1.37
2018-06-07T04:01:35.243Z,1.37
2018-06-07T04:04:04.059Z,1.60
2018-06-07T04:06:32.582Z,1.60
2018-06-07T04:09:01.035Z,1.70
2018-06-07T04:11:29.930Z,1.40
2018-06-07T04:13:58.746Z,1.53
2018-06-07T04:16:27.538Z,1.67
2018-06-07T04:18:56.590Z,1.90
2018-06-07T04:21:25.414Z,1.30
2018-06-07T04:23:53.902Z,1.60
2018-06-07T04:26:22.749Z,1.57
2018-06-07T04:28:51.359Z,1.70
2018-06-07T04:31:20.189Z,1.90
2018-06-07T04:33:49.066Z,1.73
2018-06-07T04:36:17.642Z,1.97
2018-06-07T04:38:46.171Z,1.63
2018-06-07T04:41:15.026Z,1.33
2018-06-07T04:43:43.551Z,1.70
2018-06-07T04:46:12.110Z,1.93
2018-06-07T04:48:40.689Z,2.67
2018-06-07T04:51:09.239Z,1.90
2018-06-07T04:53:37.891Z,2.53
2018-06-07T04:56:06.505Z,1.70
2018-06-07T04:58:35.073Z,2.43
2018-06-07T05:01:03.658Z,2.10
2018-06-07T05:03:32.257Z,2.77
2018-06-07T05:06:00.795Z,3.17
2018-06-07T05:08:29.497Z,4.20
2018-06-07T05:10:58.011Z,4.37
2018-06-07T05:13:26.547Z,3.00
2018-06-07T05:15:55.056Z,2.87
2018-06-07T05:18:23.685Z,3.07
2018-06-07T05:20:52.227Z,2.27
2018-06-07T05:23:20.784Z,2.70
2018-06-07T05:25:49.277Z,2.13
2018-06-07T05:28:17.830Z,2.10
2018-06-07T05:30:46.387Z,1.60
2018-06-07T05:33:14.907Z,1.70
2018-06-07T05:35:43.519Z,1.90
2018-06-07T05:38:12.129Z,1.73
2018-06-07T05:40:40.626Z,1.80
2018-06-07T05:43:09.208Z,1.73
2018-06-07T05:45:37.775Z,1.80
2018-06-07T05:48:06.375Z,1.77
2018-06-07T05:50:34.985Z,1.70
2018-06-07T05:53:03.478Z,2.03
2018-06-07T05:55:31.981Z,1.73
2018-06-07T05:58:00.597Z,1.73
2018-06-07T06:00:29.269Z,2.00
2018-06-07T06:02:57.819Z,1.63
2018-06-07T06:05:26.903Z,1.80
2018-06-07T06:07:55.433Z,1.57
2018-06-07T06:10:24.014Z,1.93
2018-06-07T06:12:52.664Z,1.53
2018-06-07T06:15:21.186Z,1.53
2018-06-07T06:17:49.711Z,1.73
2018-06-07T06:20:18.225Z,1.73
2018-06-07T06:22:46.754Z,1.63
2018-06-07T06:25:15.277Z,1.77
2018-06-07T06:27:43.769Z,1.67
2018-06-07T06:30:12.212Z,1.63
2018-06-07T06:32:40.738Z,1.50
2018-06-07T06:35:09.298Z,1.57
2018-06-07T06:38:43.395Z,1.63
2018-06-07T06:41:11.913Z,1.80
2018-06-07T06:43:40.531Z,1.77
2018-06-07T06:46:09.092Z,1.60
2018-06-07T06:48:37.603Z,1.83
2018-06-07T06:51:06.309Z,1.67
2018-06-07T06:53:34.889Z,1.70
2018-06-07T06:56:03.414Z,1.63
2018-06-07T06:58:31.974Z,1.77
2018-06-07T07:01:00.528Z,1.43
2018-06-07T07:03:29.146Z,1.60
2018-06-07T07:05:57.634Z,1.53
2018-06-07T07:08:26.192Z,1.80
2018-06-07T07:10:54.707Z,2.00
2018-06-07T07:13:23.279Z,1.67
2018-06-07T07:15:51.959Z,1.53
2018-06-07T07:18:20.515Z,1.77
2018-06-07T07:20:49.092Z,1.80
2018-06-07T07:23:17.628Z,1.87
2018-06-07T07:25:46.198Z,1.57
2018-06-07T07:28:14.689Z,1.70
2018-06-07T07:30:43.246Z,2.07
2018-06-07T07:33:11.816Z,1.50
2018-06-07T07:35:40.431Z,2.23
2018-06-07T07:38:08.979Z,1.63
2018-06-07T07:40:37.509Z,1.80
2018-06-07T07:43:06.054Z,1.90
2018-06-07T07:45:34.619Z,1.87
2018-06-07T07:48:03.227Z,2.00
2018-06-07T07:50:31.720Z,1.80
2018-06-07T07:53:00.233Z,1.73
2018-06-07T07:55:28.730Z,2.63
2018-06-07T07:57:57.257Z,2.00
2018-06-07T08:00:25.756Z,1.80
2018-06-07T08:02:54.318Z,1.90
2018-06-07T08:05:22.882Z,1.73
2018-06-07T08:07:51.466Z,1.70
2018-06-07T08:10:20.120Z,2.13
2018-06-07T08:12:48.643Z,1.70
2018-06-07T08:15:17.152Z,2.03
2018-06-07T08:17:45.717Z,2.07
2018-06-07T08:20:14.399Z,1.90
2018-06-07T08:22:42.983Z,1.57
2018-06-07T08:25:11.524Z,2.20
2018-06-07T08:27:40.129Z,2.13
2018-06-07T08:30:08.793Z,2.00
2018-06-07T08:32:37.300Z,1.80
2018-06-07T08:35:05.807Z,2.33
2018-06-07T08:37:34.327Z,2.03
2018-06-07T08:40:02.950Z,2.17
2018-06-07T08:42:31.476Z,2.10
2018-06-07T08:45:00.108Z,3.00
2018-06-07T08:47:28.647Z,1.87
2018-06-07T08:49:57.191Z,2.50
2018-06-07T08:52:25.760Z,2.47
2018-06-07T08:54:58.160Z,2.20
2018-06-07T08:57:26.874Z,2.80
2018-06-07T08:59:55.988Z,2.77
2018-06-07T09:02:24.540Z,2.67
2018-06-07T09:04:53.108Z,2.17
2018-06-07T09:07:21.614Z,2.87
2018-06-07T09:09:50.169Z,2.57
2018-06-07T09:12:18.692Z,2.80
2018-06-07T09:15:01.663Z,2.73
2018-06-07T09:17:30.241Z,3.10
2018-06-07T09:19:58.757Z,3.13
2018-06-07T09:22:27.231Z,3.20
2018-06-07T09:24:55.773Z,3.20
2018-06-07T09:27:24.312Z,3.13
2018-06-07T09:29:53.006Z,2.90
2018-06-07T09:32:21.625Z,3.00
2018-06-07T09:34:50.176Z,2.63
2018-06-07T09:37:18.682Z,4.10
2018-06-07T09:39:47.211Z,3.30
2018-06-07T09:42:15.723Z,3.63
2018-06-07T09:44:44.216Z,3.83
2018-06-07T09:47:12.839Z,3.37
2018-06-07T09:49:41.284Z,3.50
2018-06-07T09:52:09.747Z,3.30
2018-06-07T09:54:38.241Z,3.20
2018-06-07T09:57:06.834Z,3.70
2018-06-07T09:59:35.365Z,3.90
2018-06-07T10:02:03.932Z,4.22
2018-06-07T10:04:32.459Z,3.73
2018-06-07T10:07:00.983Z,4.40
2018-06-07T10:09:29.480Z,4.60
2018-06-07T10:11:57.956Z,4.50
2018-06-07T10:14:26.526Z,3.75
2018-06-07T10:16:55.096Z,4.50
2018-06-07T10:19:23.663Z,3.62
2018-06-07T10:21:52.163Z,3.90
2018-06-07T10:24:20.648Z,4.17
2018-06-07T10:26:49.131Z,4.42
2018-06-07T10:29:17.704Z,4.10
2018-06-07T10:31:46.177Z,4.28
2018-06-07T10:34:14.740Z,3.95
2018-06-07T10:36:43.365Z,4.70
2018-06-07T10:39:11.900Z,4.55
2018-06-07T10:41:40.420Z,4.72
2018-06-07T10:44:08.918Z,3.87
2018-06-07T10:46:37.454Z,4.08
2018-06-07T10:49:06.067Z,4.05
2018-06-07T10:51:34.610Z,4.53
2018-06-07T10:54:03.371Z,4.42
2018-06-07T10:56:31.940Z,5.00
2018-06-07T10:59:00.565Z,5.10
2018-06-07T11:01:29.094Z,4.90
2018-06-07T11:03:57.705Z,5.10
2018-06-07T11:06:26.387Z,4.33
2018-06-07T11:08:54.982Z,5.22
2018-06-07T11:11:23.489Z,6.33
2018-06-07T11:13:52.161Z,5.22
2018-06-07T11:16:20.702Z,5.65
2018-06-07T11:18:49.289Z,5.53
2018-06-07T11:21:17.811Z,5.28
2018-06-07T11:23:46.266Z,5.12
2018-06-07T11:26:14.910Z,5.55
2018-06-07T11:28:44.190Z,5.00
2018-06-07T11:31:12.813Z,5.20
2018-06-07T11:33:41.342Z,6.10
2018-06-07T11:36:09.933Z,5.40
2018-06-07T11:38:38.665Z,5.53
2018-06-07T11:41:07.227Z,5.62
2018-06-07T11:43:35.879Z,5.47
2018-06-07T11:46:04.619Z,5.10
2018-06-07T11:48:33.128Z,5.33
2018-06-07T11:51:01.693Z,5.35
2018-06-07T11:53:30.304Z,5.72
2018-06-07T11:55:58.832Z,5.17
2018-06-07T11:58:27.354Z,4.45
2018-06-07T12:00:55.981Z,5.85
2018-06-07T12:03:24.544Z,5.10
2018-06-07T12:05:53.076Z,6.12
2018-06-07T12:08:21.621Z,4.78
2018-06-07T12:10:50.127Z,5.37
2018-06-07T12:13:18.566Z,5.58
2018-06-07T12:15:47.052Z,5.92
2018-06-07T12:18:15.648Z,5.33
2018-06-07T12:20:44.143Z,5.53
2018-06-07T12:23:12.619Z,5.70
2018-06-07T12:25:41.145Z,6.12
2018-06-07T12:28:10.015Z,5.55
2018-06-07T12:30:38.543Z,5.80
2018-06-07T12:33:07.337Z,6.25
2018-06-07T12:35:35.835Z,5.65
2018-06-07T12:38:04.711Z,6.10
2018-06-07T12:40:33.601Z,5.97
2018-06-07T12:43:02.371Z,5.75
2018-06-07T12:45:31.382Z,6.28
2018-06-07T12:48:00.245Z,5.55
2018-06-07T12:50:29.154Z,5.47
2018-06-07T12:52:57.940Z,5.62
2018-06-07T12:55:26.526Z,6.08
2018-06-07T12:57:55.090Z,5.33
2018-06-07T13:00:23.564Z,6.03
2018-06-07T13:02:52.051Z,6.05
2018-06-07T13:05:20.633Z,5.67
2018-06-07T13:07:49.134Z,5.17
2018-06-07T13:10:17.996Z,5.53
2018-06-07T13:12:46.423Z,6.15
2018-06-07T13:15:14.929Z,6.58
2018-06-07T13:17:43.522Z,6.03
2018-06-07T13:20:12.126Z,5.30
2018-06-07T13:22:41.003Z,6.45
2018-06-07T13:25:10.882Z,6.47
2018-06-07T13:27:39.683Z,6.03
2018-06-07T13:30:08.328Z,6.03
2018-06-07T13:32:36.802Z,6.33
2018-06-07T13:35:05.464Z,6.10
2018-06-07T13:37:33.997Z,6.58
2018-06-07T13:40:02.502Z,6.28
2018-06-07T13:42:31.186Z,6.12
2018-06-07T13:44:59.754Z,6.42
2018-06-07T13:47:28.250Z,6.08
2018-06-07T13:49:56.764Z,6.25
2018-06-07T13:52:25.263Z,6.25
2018-06-07T13:54:53.763Z,6.58
2018-06-07T13:57:22.210Z,6.35
2018-06-07T13:59:50.777Z,6.80
2018-06-07T14:02:19.242Z,5.97
2018-06-07T14:04:47.715Z,5.92
2018-06-07T14:07:16.226Z,6.08
2018-06-07T14:09:44.900Z,6.55
2018-06-07T14:12:14.050Z,5.70
2018-06-07T14:14:42.606Z,6.17
2018-06-07T14:17:11.284Z,5.62
2018-06-07T14:19:40.210Z,7.05
2018-06-07T14:22:08.738Z,7.08
2018-06-07T14:24:37.220Z,6.78
2018-06-07T14:27:05.851Z,6.70
2018-06-07T14:29:34.412Z,6.35
2018-06-07T14:32:03.266Z,5.90
2018-06-07T14:34:31.792Z,6.10
2018-06-07T14:37:00.790Z,6.80
2018-06-07T14:39:29.617Z,6.50
2018-06-07T14:41:58.101Z,7.50
2018-06-07T14:44:26.809Z,7.17
2018-06-07T14:46:55.346Z,6.30
2018-06-07T14:49:24.275Z,6.60
2018-06-07T14:51:52.956Z,9.08
2018-06-07T14:54:21.454Z,6.62
2018-06-07T14:56:49.942Z,6.45
2018-06-07T14:59:18.426Z,6.80
2018-06-07T15:01:46.968Z,6.78
2018-06-07T15:04:15.442Z,6.35
2018-06-07T15:06:43.892Z,6.62
2018-06-07T15:09:12.438Z,6.80
2018-06-07T15:11:41.175Z,7.17
2018-06-07T15:14:09.675Z,6.37
2018-06-07T15:16:38.175Z,6.60
2018-06-07T15:19:06.779Z,6.60
2018-06-07T15:21:35.274Z,6.62
2018-06-07T15:24:03.771Z,7.15
2018-06-07T15:26:32.263Z,7.70
2018-06-07T15:29:01.223Z,7.30
2018-06-07T15:31:29.716Z,6.85
2018-06-07T15:33:58.184Z,7.03
2018-06-07T15:36:27.132Z,6.90
2018-06-07T15:38:55.655Z,6.62
2018-06-07T15:41:24.309Z,7.10
2018-06-07T15:43:52.786Z,7.05
2018-06-07T15:46:21.553Z,7.40
2018-06-07T15:48:50.051Z,6.83
2018-06-07T15:51:18.526Z,6.50
2018-06-07T15:53:46.991Z,6.60
2018-06-07T15:56:15.506Z,7.20
2018-06-07T15:58:44.343Z,6.47
2018-06-07T16:01:12.994Z,6.97
2018-06-07T16:03:41.526Z,6.75
2018-06-07T16:06:10.319Z,8.00
2018-06-07T16:08:38.878Z,7.40
2018-06-07T16:11:07.604Z,7.33
2018-06-07T16:13:36.085Z,7.33
2018-06-07T16:16:04.546Z,7.60
2018-06-07T16:18:32.996Z,7.20
2018-06-07T16:21:01.629Z,7.10
2018-06-07T16:23:30.884Z,7.28
2018-06-07T16:25:59.383Z,6.87
2018-06-07T16:28:27.862Z,7.12
2018-06-07T16:30:56.346Z,6.75
2018-06-07T16:33:25.118Z,7.03
2018-06-07T16:35:53.759Z,7.55
2018-06-07T16:38:22.608Z,7.30
2018-06-07T16:40:51.436Z,7.50
2018-06-07T16:43:20.528Z,6.87
2018-06-07T16:45:49.033Z,7.85
2018-06-07T16:48:17.492Z,6.78
2018-06-07T16:50:46.305Z,7.10
2018-06-07T16:53:14.824Z,7.22
2018-06-07T16:55:43.322Z,7.37
2018-06-07T16:58:11.822Z,7.47
2018-06-07T17:00:41.339Z,7.40
2018-06-07T17:03:10.143Z,7.08
2018-06-07T17:05:38.881Z,6.90
2018-06-07T17:08:07.365Z,7.47
2018-06-07T17:10:36.168Z,7.60
2018-06-07T17:13:04.747Z,7.17
2018-06-07T17:15:33.282Z,7.10
2018-06-07T17:18:02.005Z,6.80
2018-06-07T17:20:30.638Z,7.33
2018-06-07T17:22:59.703Z,6.95
2018-06-07T17:25:28.450Z,6.85
2018-06-07T17:27:57.119Z,6.33
2018-06-07T17:30:28.456Z,6.92
2018-06-07T17:32:56.936Z,7.30
2018-06-07T17:35:27.960Z,6.83
2018-06-07T17:37:56.765Z,7.00
2018-06-07T17:40:25.566Z,6.87
2018-06-07T17:42:54.073Z,7.03
2018-06-07T17:45:23.442Z,6.55
2018-06-07T17:47:52.190Z,7.85
2018-06-07T17:50:21.793Z,6.58
2018-06-07T17:52:50.377Z,7.10
2018-06-07T17:55:19.165Z,6.70
2018-06-07T17:57:49.082Z,7.10
2018-06-07T18:00:17.627Z,7.05
2018-06-07T18:02:46.159Z,7.45
2018-06-07T18:05:14.700Z,6.78
2018-06-07T18:07:43.461Z,6.95
2018-06-07T18:10:12.638Z,7.00
2018-06-07T18:12:42.214Z,7.45
2018-06-07T18:15:10.753Z,7.00
2018-06-07T18:17:39.547Z,6.97
2018-06-07T18:20:08.185Z,6.55
2018-06-07T18:22:36.984Z,7.08
2018-06-07T18:25:05.477Z,6.92
2018-06-07T18:27:34.749Z,7.67
2018-06-07T18:30:05.535Z,7.47
2018-06-07T18:32:34.073Z,7.05
2018-06-07T18:35:33.701Z,7.15
2018-06-07T18:38:02.581Z,7.40
2018-06-07T18:40:31.219Z,7.45
2018-06-07T18:43:00.027Z,6.65
2018-06-07T18:45:28.774Z,7.45
2018-06-07T18:47:57.284Z,6.65
2018-06-07T18:50:25.859Z,6.58
2018-06-07T18:52:54.378Z,6.20
2018-06-07T18:55:22.887Z,6.33
2018-06-07T18:57:51.422Z,6.22
2018-06-07T19:00:20.077Z,5.80
2018-06-07T19:02:48.999Z,5.85
2018-06-07T19:05:17.570Z,6.12
2018-06-07T19:07:46.169Z,6.33
2018-06-07T19:10:15.630Z,6.15
2018-06-07T19:12:45.091Z,5.85
2018-06-07T19:15:14.954Z,6.53
2018-06-07T19:17:43.586Z,5.70
2018-06-07T19:20:17.421Z,6.03
2018-06-07T19:22:46.036Z,5.90
2018-06-07T19:25:19.838Z,5.92
2018-06-07T19:27:48.384Z,6.47
2018-06-07T19:30:17.199Z,5.90
2018-06-07T19:32:51.102Z,6.33
2018-06-07T19:35:19.869Z,6.15
2018-06-07T19:37:48.544Z,5.60
2018-06-07T19:40:22.707Z,5.78
2018-06-07T19:42:51.252Z,5.28
2018-06-07T19:45:19.954Z,6.12
2018-06-07T19:47:49.321Z,5.13
2018-06-07T19:50:18.564Z,5.30
2018-06-07T19:52:47.418Z,5.60
2018-06-07T19:55:16.163Z,5.07
2018-06-07T19:57:45.373Z,5.57
2018-06-07T20:00:14.199Z,4.97
2018-06-07T20:02:42.945Z,5.53
2018-06-07T20:05:11.442Z,5.57
2018-06-07T20:07:40.592Z,5.37
2018-06-07T20:10:09.263Z,5.40
2018-06-07T20:12:37.983Z,5.17
2018-06-07T20:15:07.504Z,5.27
2018-06-07T20:17:36.215Z,5.07
2018-06-07T20:20:06.803Z,5.87
2018-06-07T20:22:35.813Z,5.77
2018-06-07T20:25:04.537Z,5.90
2018-06-07T20:27:33.278Z,6.20
2018-06-07T20:30:01.945Z,5.63
2018-06-07T20:32:30.800Z,5.73
2018-06-07T20:35:01.029Z,5.93
2018-06-07T20:37:29.987Z,5.67
2018-06-07T20:39:58.774Z,5.27
2018-06-07T20:42:27.647Z,5.30
2018-06-07T20:44:56.385Z,6.10
2018-06-07T20:47:25.335Z,6.03
2018-06-07T20:49:53.946Z,6.60
2018-06-07T20:52:22.717Z,6.53
2018-06-07T20:54:51.419Z,6.17
2018-06-07T20:57:20.171Z,6.47
2018-06-07T20:59:48.951Z,6.40
2018-06-07T21:02:18.533Z,6.67
2018-06-07T21:05:01.757Z,7.03
2018-06-07T21:07:31.069Z,6.93
2018-06-07T21:09:59.803Z,6.60
2018-06-07T21:12:29.745Z,7.13
2018-06-07T21:14:58.602Z,6.97
2018-06-07T21:17:27.156Z,7.67
2018-06-07T21:19:55.842Z,7.80
2018-06-07T21:22:25.171Z,7.63
2018-06-07T21:24:53.798Z,6.77
2018-06-07T21:27:22.359Z,7.57
2018-06-07T21:29:51.090Z,6.83
2018-06-07T21:32:19.785Z,6.70
2018-06-07T21:34:48.656Z,7.40
2018-06-07T21:37:17.978Z,7.37
2018-06-07T21:39:46.698Z,8.47
2018-06-07T21:42:14.257Z,7.37
2018-06-07T21:44:43.973Z,7.83
2018-06-07T21:47:12.710Z,7.40
2018-06-07T21:49:41.302Z,6.77
2018-06-07T21:52:10.060Z,8.23
2018-06-07T21:54:39.029Z,7.97
2018-06-07T21:57:07.766Z,7.87
2018-06-07T21:59:36.433Z,7.63
2018-06-07T22:02:05.455Z,8.23
2018-06-07T22:04:33.952Z,7.30
2018-06-07T22:07:02.683Z,7.77
2018-06-07T22:09:31.383Z,8.77
2018-06-07T22:11:59.946Z,7.87
2018-06-07T22:14:28.535Z,7.80
2018-06-07T22:16:57.139Z,7.50
2018-06-07T22:19:25.732Z,7.80
2018-06-07T22:21:54.384Z,8.27
2018-06-07T22:24:22.958Z,8.10
2018-06-07T22:26:51.456Z,8.23
2018-06-07T22:29:20.233Z,7.07
2018-06-07T22:31:48.989Z,8.10
2018-06-07T22:34:17.720Z,8.67
2018-06-07T22:36:46.251Z,9.13
2018-06-07T22:39:14.807Z,8.80
2018-06-07T22:41:43.310Z,8.30
2018-06-07T22:44:11.851Z,7.83
2018-06-07T22:46:40.362Z,8.17
2018-06-07T22:49:09.248Z,8.30
2018-06-07T22:51:37.767Z,8.10
2018-06-07T22:54:06.382Z,8.13
2018-06-07T22:56:35.005Z,7.67
2018-06-07T22:59:03.491Z,8.80
2018-06-07T23:01:32.128Z,8.50
2018-06-07T23:04:00.915Z,8.47
2018-06-07T23:06:29.470Z,8.90
2018-06-07T23:08:57.993Z,8.93
2018-06-07T23:11:27.138Z,8.80
2018-06-07T23:13:55.982Z,8.33
2018-06-07T23:16:24.493Z,8.27
2018-06-07T23:18:53.042Z,8.17
2018-06-07T23:21:21.518Z,8.60
2018-06-07T23:23:50.063Z,8.27
2018-06-07T23:26:18.790Z,9.40
2018-06-07T23:28:47.436Z,8.20
2018-06-07T23:31:16.211Z,8.53
2018-06-07T23:33:44.790Z,9.03
2018-06-07T23:36:13.330Z,9.93
2018-06-07T23:38:41.960Z,9.80
2018-06-07T23:41:10.686Z,10.43
2018-06-07T23:43:39.184Z,9.53
2018-06-07T23:46:07.689Z,9.80
2018-06-07T23:48:36.167Z,10.03
2018-06-07T23:51:04.814Z,9.70
2018-06-07T23:53:33.327Z,9.33
2018-06-07T23:56:01.821Z,9.27
2018-06-07T23:58:30.387Z,9.43
